Terminal Aerodrome Forecast
Issued by NWS

Home | Current Version | Previous Version | Text Only | Print | Product List | Glossary On
Versions: 1 2 3 4 5 6 7 8 9 10 11 12 13
433
FTUS46 KMTR 051733
TAFOAK
TAF
KOAK 051733Z 0518/0624 09004KT P6SM SCT200
     FM052000 29007KT P6SM SCT200
     FM060400 VRB03KT P6SM SCT200
     FM061200 09005KT P6SM SKC=

USA.gov is the U.S. government's official web portal to all federal, state and local government web resources and services.